sensor_id;sensor_type;location;lat;lon;timestamp;temperature;humidity
41904;DHT22;27586;51.124;4.182;2022-12-20T00:00:16;10.50;99.90
41904;DHT22;27586;51.124;4.182;2022-12-20T00:02:41;10.50;99.90
41904;DHT22;27586;51.124;4.182;2022-12-20T00:05:07;10.40;99.90
41904;DHT22;27586;51.124;4.182;2022-12-20T00:07:33;10.50;99.90
41904;DHT22;27586;51.124;4.182;2022-12-20T00:09:59;10.50;99.90
41904;DHT22;27586;51.124;4.182;2022-12-20T00:12:28;10.40;99.90
41904;DHT22;27586;51.124;4.182;2022-12-20T00:14:53;10.40;99.90
41904;DHT22;27586;51.124;4.182;2022-12-20T00:17:20;10.40;99.90
41904;DHT22;27586;51.124;4.182;2022-12-20T00:19:45;10.30;99.90
41904;DHT22;27586;51.124;4.182;2022-12-20T00:22:11;10.40;99.90
41904;DHT22;27586;51.124;4.182;2022-12-20T00:24:37;10.40;99.90
41904;DHT22;27586;51.124;4.182;2022-12-20T00:27:02;10.30;99.90
41904;DHT22;27586;51.124;4.182;2022-12-20T00:29:28;10.30;99.90
41904;DHT22;27586;51.124;4.182;2022-12-20T00:31:53;10.30;99.90
41904;DHT22;27586;51.124;4.182;2022-12-20T00:34:19;10.30;99.90
41904;DHT22;27586;51.124;4.182;2022-12-20T00:36:45;10.30;99.90
41904;DHT22;27586;51.124;4.182;2022-12-20T00:39:11;10.30;99.90
41904;DHT22;27586;51.124;4.182;2022-12-20T00:41:36;10.30;99.90
41904;DHT22;27586;51.124;4.182;2022-12-20T00:44:03;10.40;99.90
41904;DHT22;27586;51.124;4.182;2022-12-20T00:46:30;10.40;99.90
41904;DHT22;27586;51.124;4.182;2022-12-20T00:48:56;10.40;99.90
41904;DHT22;27586;51.124;4.182;2022-12-20T00:51:24;10.40;99.90
41904;DHT22;27586;51.124;4.182;2022-12-20T00:53:49;10.30;99.90
41904;DHT22;27586;51.124;4.182;2022-12-20T00:56:15;10.30;99.90
41904;DHT22;27586;51.124;4.182;2022-12-20T00:58:42;10.30;99.90
41904;DHT22;27586;51.124;4.182;2022-12-20T01:01:23;10.30;99.90
41904;DHT22;27586;51.124;4.182;2022-12-20T01:03:50;10.30;99.90
41904;DHT22;27586;51.124;4.182;2022-12-20T01:06:16;10.30;99.90
41904;DHT22;27586;51.124;4.182;2022-12-20T01:08:42;10.20;99.90
41904;DHT22;27586;51.124;4.182;2022-12-20T01:11:15;10.10;99.90
41904;DHT22;27586;51.124;4.182;2022-12-20T01:13:44;10.20;99.90
41904;DHT22;27586;51.124;4.182;2022-12-20T01:16:19;10.20;99.90
41904;DHT22;27586;51.124;4.182;2022-12-20T01:18:45;10.30;99.90
41904;DHT22;27586;51.124;4.182;2022-12-20T01:21:12;10.30;99.90
41904;DHT22;27586;51.124;4.182;2022-12-20T01:23:39;10.30;99.90
41904;DHT22;27586;51.124;4.182;2022-12-20T01:26:09;10.30;99.90
41904;DHT22;27586;51.124;4.182;2022-12-20T01:28:36;10.40;99.90
41904;DHT22;27586;51.124;4.182;2022-12-20T01:31:05;10.30;99.90
41904;DHT22;27586;51.124;4.182;2022-12-20T01:33:31;10.30;99.90
41904;DHT22;27586;51.124;4.182;2022-12-20T01:36:03;10.30;99.90
41904;DHT22;27586;51.124;4.182;2022-12-20T01:38:31;10.40;99.90
41904;DHT22;27586;51.124;4.182;2022-12-20T01:40:57;10.30;99.90
41904;DHT22;27586;51.124;4.182;2022-12-20T01:43:24;10.30;99.90
41904;DHT22;27586;51.124;4.182;2022-12-20T01:45:50;10.20;99.90
41904;DHT22;27586;51.124;4.182;2022-12-20T01:48:24;10.30;99.90
41904;DHT22;27586;51.124;4.182;2022-12-20T01:50:51;10.30;99.90
41904;DHT22;27586;51.124;4.182;2022-12-20T01:53:18;10.30;99.90
41904;DHT22;27586;51.124;4.182;2022-12-20T01:55:45;10.30;99.90
41904;DHT22;27586;51.124;4.182;2022-12-20T01:58:13;10.30;99.90
41904;DHT22;27586;51.124;4.182;2022-12-20T02:00:40;10.30;99.90
41904;DHT22;27586;51.124;4.182;2022-12-20T02:03:08;10.30;99.90
41904;DHT22;27586;51.124;4.182;2022-12-20T02:05:37;10.40;99.90
41904;DHT22;27586;51.124;4.182;2022-12-20T02:08:04;10.40;99.90
41904;DHT22;27586;51.124;4.182;2022-12-20T02:16:02;10.40;99.90
41904;DHT22;27586;51.124;4.182;2022-12-20T02:21:26;10.50;99.90
41904;DHT22;27586;51.124;4.182;2022-12-20T02:27:06;10.50;99.90
41904;DHT22;27586;51.124;4.182;2022-12-20T02:29:55;10.40;99.90
41904;DHT22;27586;51.124;4.182;2022-12-20T02:32:29;10.40;99.90
41904;DHT22;27586;51.124;4.182;2022-12-20T02:34:56;10.40;99.90
41904;DHT22;27586;51.124;4.182;2022-12-20T02:37:21;10.40;99.90
41904;DHT22;27586;51.124;4.182;2022-12-20T02:39:48;10.50;99.90
41904;DHT22;27586;51.124;4.182;2022-12-20T02:42:21;10.50;99.90
41904;DHT22;27586;51.124;4.182;2022-12-20T02:44:58;10.60;99.90
41904;DHT22;27586;51.124;4.182;2022-12-20T02:50:10;10.40;99.90
41904;DHT22;27586;51.124;4.182;2022-12-20T02:52:37;10.50;99.90
41904;DHT22;27586;51.124;4.182;2022-12-20T02:55:04;10.50;99.90
41904;DHT22;27586;51.124;4.182;2022-12-20T02:57:37;10.60;99.90
41904;DHT22;27586;51.124;4.182;2022-12-20T03:00:12;10.70;99.90
41904;DHT22;27586;51.124;4.182;2022-12-20T03:02:40;10.60;99.90
41904;DHT22;27586;51.124;4.182;2022-12-20T03:05:25;10.70;99.90
41904;DHT22;27586;51.124;4.182;2022-12-20T03:07:51;10.80;99.90
41904;DHT22;27586;51.124;4.182;2022-12-20T03:10:18;10.70;99.90
41904;DHT22;27586;51.124;4.182;2022-12-20T03:12:44;10.70;99.90
41904;DHT22;27586;51.124;4.182;2022-12-20T03:15:10;10.70;99.90
41904;DHT22;27586;51.124;4.182;2022-12-20T03:17:36;10.80;99.90
41904;DHT22;27586;51.124;4.182;2022-12-20T03:20:02;10.80;99.90
41904;DHT22;27586;51.124;4.182;2022-12-20T03:22:28;10.80;99.90
41904;DHT22;27586;51.124;4.182;2022-12-20T03:24:57;10.90;99.90
41904;DHT22;27586;51.124;4.182;2022-12-20T03:27:22;11.00;99.90
41904;DHT22;27586;51.124;4.182;2022-12-20T03:29:48;11.00;99.90
41904;DHT22;27586;51.124;4.182;2022-12-20T03:32:14;11.10;99.90
41904;DHT22;27586;51.124;4.182;2022-12-20T03:34:39;11.10;99.90
41904;DHT22;27586;51.124;4.182;2022-12-20T03:37:05;11.10;99.90
41904;DHT22;27586;51.124;4.182;2022-12-20T03:39:30;11.10;99.90
41904;DHT22;27586;51.124;4.182;2022-12-20T03:41:56;11.10;99.90
41904;DHT22;27586;51.124;4.182;2022-12-20T03:44:22;11.00;99.90
41904;DHT22;27586;51.124;4.182;2022-12-20T03:46:49;11.00;99.90
41904;DHT22;27586;51.124;4.182;2022-12-20T03:49:15;11.10;99.90
41904;DHT22;27586;51.124;4.182;2022-12-20T03:51:40;11.10;99.90
41904;DHT22;27586;51.124;4.182;2022-12-20T03:54:06;11.00;99.90
41904;DHT22;27586;51.124;4.182;2022-12-20T03:56:31;11.10;99.90
41904;DHT22;27586;51.124;4.182;2022-12-20T03:58:57;11.20;99.90
41904;DHT22;27586;51.124;4.182;2022-12-20T04:01:26;11.10;99.90
41904;DHT22;27586;51.124;4.182;2022-12-20T04:03:51;11.10;99.90
41904;DHT22;27586;51.124;4.182;2022-12-20T04:06:18;11.10;99.90
41904;DHT22;27586;51.124;4.182;2022-12-20T04:08:44;11.10;99.90
41904;DHT22;27586;51.124;4.182;2022-12-20T04:11:10;11.10;99.90
41904;DHT22;27586;51.124;4.182;2022-12-20T04:13:46;11.00;99.90
41904;DHT22;27586;51.124;4.182;2022-12-20T04:16:18;11.10;99.90
41904;DHT22;27586;51.124;4.182;2022-12-20T04:18:44;11.00;99.90
41904;DHT22;27586;51.124;4.182;2022-12-20T04:21:11;11.00;99.90
41904;DHT22;27586;51.124;4.182;2022-12-20T04:23:37;11.10;99.90
41904;DHT22;27586;51.124;4.182;2022-12-20T04:26:05;11.10;99.90
41904;DHT22;27586;51.124;4.182;2022-12-20T04:28:31;11.10;99.90
41904;DHT22;27586;51.124;4.182;2022-12-20T04:30:58;11.10;99.90
41904;DHT22;27586;51.124;4.182;2022-12-20T04:33:25;11.10;99.90
41904;DHT22;27586;51.124;4.182;2022-12-20T04:35:51;11.20;99.90
41904;DHT22;27586;51.124;4.182;2022-12-20T04:38:19;11.10;99.90
41904;DHT22;27586;51.124;4.182;2022-12-20T04:40:48;11.10;99.90
41904;DHT22;27586;51.124;4.182;2022-12-20T04:43:14;11.00;99.90
41904;DHT22;27586;51.124;4.182;2022-12-20T04:45:40;11.00;99.90
41904;DHT22;27586;51.124;4.182;2022-12-20T04:48:05;11.10;99.90
41904;DHT22;27586;51.124;4.182;2022-12-20T04:50:34;11.10;99.90
41904;DHT22;27586;51.124;4.182;2022-12-20T04:53:00;11.20;99.90
41904;DHT22;27586;51.124;4.182;2022-12-20T04:55:44;11.20;99.90
41904;DHT22;27586;51.124;4.182;2022-12-20T04:58:10;11.20;99.90
41904;DHT22;27586;51.124;4.182;2022-12-20T05:00:36;11.20;99.90
41904;DHT22;27586;51.124;4.182;2022-12-20T05:03:02;11.10;99.90
41904;DHT22;27586;51.124;4.182;2022-12-20T05:05:27;11.10;99.90
41904;DHT22;27586;51.124;4.182;2022-12-20T05:07:54;11.00;99.90
41904;DHT22;27586;51.124;4.182;2022-12-20T05:10:20;11.00;99.90
41904;DHT22;27586;51.124;4.182;2022-12-20T05:12:45;11.00;99.90
41904;DHT22;27586;51.124;4.182;2022-12-20T05:15:11;11.00;99.90
41904;DHT22;27586;51.124;4.182;2022-12-20T05:17:37;10.90;99.90
41904;DHT22;27586;51.124;4.182;2022-12-20T05:20:04;10.90;99.90
41904;DHT22;27586;51.124;4.182;2022-12-20T05:22:30;10.80;99.90
41904;DHT22;27586;51.124;4.182;2022-12-20T05:25:14;10.80;99.90
41904;DHT22;27586;51.124;4.182;2022-12-20T05:27:59;10.80;99.90
41904;DHT22;27586;51.124;4.182;2022-12-20T05:30:25;10.70;99.90
41904;DHT22;27586;51.124;4.182;2022-12-20T05:32:53;10.70;99.90
41904;DHT22;27586;51.124;4.182;2022-12-20T05:35:19;10.70;99.90
41904;DHT22;27586;51.124;4.182;2022-12-20T05:37:44;10.60;99.90
41904;DHT22;27586;51.124;4.182;2022-12-20T05:40:10;10.70;99.90
41904;DHT22;27586;51.124;4.182;2022-12-20T05:42:36;10.70;99.90
41904;DHT22;27586;51.124;4.182;2022-12-20T05:45:03;10.80;99.90
41904;DHT22;27586;51.124;4.182;2022-12-20T05:47:30;10.70;99.90
41904;DHT22;27586;51.124;4.182;2022-12-20T05:49:58;10.70;99.90
41904;DHT22;27586;51.124;4.182;2022-12-20T05:52:24;10.80;99.90
41904;DHT22;27586;51.124;4.182;2022-12-20T05:54:50;10.70;99.90
41904;DHT22;27586;51.124;4.182;2022-12-20T05:57:16;10.70;99.90
41904;DHT22;27586;51.124;4.182;2022-12-20T05:59:42;10.70;99.90
41904;DHT22;27586;51.124;4.182;2022-12-20T06:02:08;10.80;99.90
41904;DHT22;27586;51.124;4.182;2022-12-20T06:04:35;10.70;99.90
41904;DHT22;27586;51.124;4.182;2022-12-20T06:07:03;10.80;99.90
41904;DHT22;27586;51.124;4.182;2022-12-20T06:09:29;10.80;99.90
41904;DHT22;27586;51.124;4.182;2022-12-20T06:11:55;10.80;99.90
41904;DHT22;27586;51.124;4.182;2022-12-20T06:14:21;10.80;99.90
41904;DHT22;27586;51.124;4.182;2022-12-20T06:16:47;10.80;99.90
41904;DHT22;27586;51.124;4.182;2022-12-20T06:19:12;10.70;99.90
41904;DHT22;27586;51.124;4.182;2022-12-20T06:21:38;10.80;99.90
41904;DHT22;27586;51.124;4.182;2022-12-20T06:24:04;10.80;99.90
41904;DHT22;27586;51.124;4.182;2022-12-20T06:26:30;10.80;99.90
41904;DHT22;27586;51.124;4.182;2022-12-20T06:29:01;10.80;99.90
41904;DHT22;27586;51.124;4.182;2022-12-20T06:31:27;10.90;99.90
41904;DHT22;27586;51.124;4.182;2022-12-20T06:33:52;10.90;99.90
41904;DHT22;27586;51.124;4.182;2022-12-20T06:36:18;11.00;99.90
41904;DHT22;27586;51.124;4.182;2022-12-20T06:38:44;11.00;99.90
41904;DHT22;27586;51.124;4.182;2022-12-20T06:41:09;11.20;99.90
41904;DHT22;27586;51.124;4.182;2022-12-20T06:43:35;11.00;99.90
41904;DHT22;27586;51.124;4.182;2022-12-20T06:46:00;11.00;99.90
41904;DHT22;27586;51.124;4.182;2022-12-20T06:48:26;11.20;99.90
41904;DHT22;27586;51.124;4.182;2022-12-20T06:50:52;11.10;99.90
41904;DHT22;27586;51.124;4.182;2022-12-20T06:53:18;11.10;99.90
41904;DHT22;27586;51.124;4.182;2022-12-20T06:55:46;11.10;99.90
41904;DHT22;27586;51.124;4.182;2022-12-20T06:58:14;11.20;99.90
41904;DHT22;27586;51.124;4.182;2022-12-20T07:00:40;11.10;99.90
41904;DHT22;27586;51.124;4.182;2022-12-20T07:03:06;11.10;99.90
41904;DHT22;27586;51.124;4.182;2022-12-20T07:05:31;11.00;99.90
41904;DHT22;27586;51.124;4.182;2022-12-20T07:07:57;11.00;99.90
41904;DHT22;27586;51.124;4.182;2022-12-20T07:10:23;11.00;99.90
41904;DHT22;27586;51.124;4.182;2022-12-20T07:12:48;11.10;99.90
41904;DHT22;27586;51.124;4.182;2022-12-20T07:15:15;11.00;99.90
41904;DHT22;27586;51.124;4.182;2022-12-20T07:17:40;11.00;99.90
41904;DHT22;27586;51.124;4.182;2022-12-20T07:20:06;10.90;99.90
41904;DHT22;27586;51.124;4.182;2022-12-20T07:22:35;10.90;99.90
41904;DHT22;27586;51.124;4.182;2022-12-20T07:25:01;10.80;99.90
41904;DHT22;27586;51.124;4.182;2022-12-20T07:27:26;10.80;99.90
41904;DHT22;27586;51.124;4.182;2022-12-20T07:29:55;10.80;99.90
41904;DHT22;27586;51.124;4.182;2022-12-20T07:32:21;10.80;99.90
41904;DHT22;27586;51.124;4.182;2022-12-20T07:34:46;10.80;99.90
41904;DHT22;27586;51.124;4.182;2022-12-20T07:37:12;10.80;99.90
41904;DHT22;27586;51.124;4.182;2022-12-20T07:39:38;10.80;99.90
41904;DHT22;27586;51.124;4.182;2022-12-20T07:42:04;10.80;99.90
41904;DHT22;27586;51.124;4.182;2022-12-20T07:44:29;10.70;99.90
41904;DHT22;27586;51.124;4.182;2022-12-20T07:46:55;10.70;99.90
41904;DHT22;27586;51.124;4.182;2022-12-20T07:49:20;10.60;99.90
41904;DHT22;27586;51.124;4.182;2022-12-20T07:51:51;10.60;99.90
41904;DHT22;27586;51.124;4.182;2022-12-20T07:54:25;10.60;99.90
41904;DHT22;27586;51.124;4.182;2022-12-20T07:56:55;10.70;99.90
41904;DHT22;27586;51.124;4.182;2022-12-20T07:59:43;10.70;99.90
41904;DHT22;27586;51.124;4.182;2022-12-20T08:02:14;10.60;99.90
41904;DHT22;27586;51.124;4.182;2022-12-20T08:04:41;10.70;99.90
41904;DHT22;27586;51.124;4.182;2022-12-20T08:07:08;10.80;99.90
41904;DHT22;27586;51.124;4.182;2022-12-20T08:09:39;10.70;99.90
41904;DHT22;27586;51.124;4.182;2022-12-20T08:12:07;10.60;99.90
41904;DHT22;27586;51.124;4.182;2022-12-20T08:14:33;10.60;99.90
41904;DHT22;27586;51.124;4.182;2022-12-20T08:16:58;10.70;99.90
41904;DHT22;27586;51.124;4.182;2022-12-20T08:19:24;10.70;99.90
41904;DHT22;27586;51.124;4.182;2022-12-20T08:21:50;10.80;99.90
41904;DHT22;27586;51.124;4.182;2022-12-20T08:24:16;10.70;99.90
41904;DHT22;27586;51.124;4.182;2022-12-20T08:26:45;10.70;99.90
41904;DHT22;27586;51.124;4.182;2022-12-20T08:29:11;10.60;99.90
41904;DHT22;27586;51.124;4.182;2022-12-20T08:31:37;10.60;99.90
41904;DHT22;27586;51.124;4.182;2022-12-20T08:34:04;10.70;99.90
41904;DHT22;27586;51.124;4.182;2022-12-20T08:36:30;10.70;99.90
41904;DHT22;27586;51.124;4.182;2022-12-20T08:38:55;10.70;99.90
41904;DHT22;27586;51.124;4.182;2022-12-20T08:41:21;10.60;99.90
41904;DHT22;27586;51.124;4.182;2022-12-20T08:43:47;10.70;99.90
41904;DHT22;27586;51.124;4.182;2022-12-20T08:46:13;10.70;99.90
41904;DHT22;27586;51.124;4.182;2022-12-20T08:48:38;10.80;99.90
41904;DHT22;27586;51.124;4.182;2022-12-20T08:51:07;10.70;99.90
41904;DHT22;27586;51.124;4.182;2022-12-20T08:53:34;10.70;99.90
41904;DHT22;27586;51.124;4.182;2022-12-20T08:56:12;10.70;99.90
41904;DHT22;27586;51.124;4.182;2022-12-20T08:58:39;10.70;99.90
41904;DHT22;27586;51.124;4.182;2022-12-20T09:01:18;10.70;99.90
41904;DHT22;27586;51.124;4.182;2022-12-20T09:03:45;10.70;99.90
41904;DHT22;27586;51.124;4.182;2022-12-20T09:06:13;10.70;99.90
41904;DHT22;27586;51.124;4.182;2022-12-20T09:08:40;10.70;99.90
41904;DHT22;27586;51.124;4.182;2022-12-20T09:11:11;10.70;99.90
41904;DHT22;27586;51.124;4.182;2022-12-20T09:13:38;10.80;99.90
41904;DHT22;27586;51.124;4.182;2022-12-20T09:16:05;10.70;99.90
41904;DHT22;27586;51.124;4.182;2022-12-20T09:18:31;10.80;99.90
41904;DHT22;27586;51.124;4.182;2022-12-20T09:21:02;10.70;99.90
41904;DHT22;27586;51.124;4.182;2022-12-20T09:23:28;10.80;99.90
41904;DHT22;27586;51.124;4.182;2022-12-20T09:25:55;10.80;99.90
41904;DHT22;27586;51.124;4.182;2022-12-20T09:28:25;10.80;99.90
41904;DHT22;27586;51.124;4.182;2022-12-20T09:30:51;10.80;99.90
41904;DHT22;27586;51.124;4.182;2022-12-20T09:33:16;10.90;99.90
41904;DHT22;27586;51.124;4.182;2022-12-20T09:35:46;10.90;99.90
41904;DHT22;27586;51.124;4.182;2022-12-20T09:38:12;10.80;99.90
41904;DHT22;27586;51.124;4.182;2022-12-20T09:40:44;10.90;99.90
41904;DHT22;27586;51.124;4.182;2022-12-20T09:43:12;10.80;99.90
41904;DHT22;27586;51.124;4.182;2022-12-20T09:45:38;10.80;99.90
41904;DHT22;27586;51.124;4.182;2022-12-20T09:48:07;10.90;99.90
41904;DHT22;27586;51.124;4.182;2022-12-20T09:55:57;11.00;99.90
41904;DHT22;27586;51.124;4.182;2022-12-20T09:58:45;11.00;99.90
41904;DHT22;27586;51.124;4.182;2022-12-20T10:01:23;11.00;99.90
41904;DHT22;27586;51.124;4.182;2022-12-20T10:03:50;11.00;99.90
41904;DHT22;27586;51.124;4.182;2022-12-20T10:08:59;11.00;99.90
41904;DHT22;27586;51.124;4.182;2022-12-20T10:16:38;10.90;99.90
41904;DHT22;27586;51.124;4.182;2022-12-20T10:19:27;10.90;99.90
41904;DHT22;27586;51.124;4.182;2022-12-20T10:22:09;10.90;99.90
41904;DHT22;27586;51.124;4.182;2022-12-20T10:24:37;11.00;99.90
41904;DHT22;27586;51.124;4.182;2022-12-20T10:27:19;11.00;99.90
41904;DHT22;27586;51.124;4.182;2022-12-20T10:29:47;11.00;99.90
41904;DHT22;27586;51.124;4.182;2022-12-20T10:32:20;11.00;99.90
41904;DHT22;27586;51.124;4.182;2022-12-20T10:35:00;11.00;99.90
41904;DHT22;27586;51.124;4.182;2022-12-20T10:37:56;11.00;99.90
41904;DHT22;27586;51.124;4.182;2022-12-20T10:40:31;11.00;99.90
41904;DHT22;27586;51.124;4.182;2022-12-20T10:42:58;11.10;99.90
41904;DHT22;27586;51.124;4.182;2022-12-20T10:45:31;11.10;99.90
41904;DHT22;27586;51.124;4.182;2022-12-20T10:48:00;11.10;99.90
41904;DHT22;27586;51.124;4.182;2022-12-20T10:50:26;11.10;99.90
41904;DHT22;27586;51.124;4.182;2022-12-20T10:55:39;11.10;99.90
41904;DHT22;27586;51.124;4.182;2022-12-20T11:00:43;11.00;99.90
41904;DHT22;27586;51.124;4.182;2022-12-20T11:03:18;11.00;99.90
41904;DHT22;27586;51.124;4.182;2022-12-20T11:06:01;11.00;99.90
41904;DHT22;27586;51.124;4.182;2022-12-20T11:08:30;11.10;99.90
41904;DHT22;27586;51.124;4.182;2022-12-20T11:11:17;11.10;99.90
41904;DHT22;27586;51.124;4.182;2022-12-20T11:13:44;11.10;99.90
41904;DHT22;27586;51.124;4.182;2022-12-20T11:16:35;11.10;99.90
41904;DHT22;27586;51.124;4.182;2022-12-20T11:22:36;11.10;99.90
41904;DHT22;27586;51.124;4.182;2022-12-20T11:31:07;11.20;99.90
41904;DHT22;27586;51.124;4.182;2022-12-20T11:33:52;11.20;99.90
41904;DHT22;27586;51.124;4.182;2022-12-20T11:37:03;11.30;99.90
41904;DHT22;27586;51.124;4.182;2022-12-20T11:39:39;11.20;99.90
41904;DHT22;27586;51.124;4.182;2022-12-20T11:51:21;11.20;99.90
41904;DHT22;27586;51.124;4.182;2022-12-20T11:54:14;11.20;99.90
41904;DHT22;27586;51.124;4.182;2022-12-20T11:56:44;11.20;99.90
41904;DHT22;27586;51.124;4.182;2022-12-20T11:59:41;11.30;99.90
41904;DHT22;27586;51.124;4.182;2022-12-20T12:02:27;11.30;99.90
41904;DHT22;27586;51.124;4.182;2022-12-20T12:05:03;11.30;99.90
41904;DHT22;27586;51.124;4.182;2022-12-20T12:07:31;11.20;99.90
41904;DHT22;27586;51.124;4.182;2022-12-20T12:10:00;11.20;99.90
41904;DHT22;27586;51.124;4.182;2022-12-20T12:12:38;11.10;99.90
41904;DHT22;27586;51.124;4.182;2022-12-20T12:15:25;11.10;99.90
41904;DHT22;27586;51.124;4.182;2022-12-20T12:18:04;11.20;99.90
41904;DHT22;27586;51.124;4.182;2022-12-20T12:26:26;11.20;99.90
41904;DHT22;27586;51.124;4.182;2022-12-20T12:29:05;11.10;99.90
41904;DHT22;27586;51.124;4.182;2022-12-20T12:47:39;11.20;99.90
41904;DHT22;27586;51.124;4.182;2022-12-20T12:50:20;11.20;99.90
41904;DHT22;27586;51.124;4.182;2022-12-20T12:52:55;11.20;99.90
41904;DHT22;27586;51.124;4.182;2022-12-20T12:55:38;11.20;99.90
41904;DHT22;27586;51.124;4.182;2022-12-20T13:03:40;11.10;99.90
41904;DHT22;27586;51.124;4.182;2022-12-20T13:11:35;11.10;99.90
41904;DHT22;27586;51.124;4.182;2022-12-20T13:16:52;11.00;99.90
41904;DHT22;27586;51.124;4.182;2022-12-20T13:21:55;11.00;99.90
41904;DHT22;27586;51.124;4.182;2022-12-20T13:27:17;11.20;99.90
41904;DHT22;27586;51.124;4.182;2022-12-20T13:29:54;11.20;99.90
41904;DHT22;27586;51.124;4.182;2022-12-20T13:42:58;11.20;99.90
41904;DHT22;27586;51.124;4.182;2022-12-20T13:45:28;11.10;99.90
41904;DHT22;27586;51.124;4.182;2022-12-20T13:47:58;11.20;99.90
41904;DHT22;27586;51.124;4.182;2022-12-20T13:50:39;11.20;99.90
41904;DHT22;27586;51.124;4.182;2022-12-20T13:53:21;11.20;99.90
41904;DHT22;27586;51.124;4.182;2022-12-20T13:55:48;11.30;99.90
41904;DHT22;27586;51.124;4.182;2022-12-20T14:00:48;11.10;99.90
41904;DHT22;27586;51.124;4.182;2022-12-20T14:03:26;11.10;99.90
41904;DHT22;27586;51.124;4.182;2022-12-20T14:06:00;11.20;99.90
41904;DHT22;27586;51.124;4.182;2022-12-20T14:08:32;11.10;99.90
41904;DHT22;27586;51.124;4.182;2022-12-20T14:11:19;11.10;99.90
41904;DHT22;27586;51.124;4.182;2022-12-20T14:14:10;11.10;99.90
41904;DHT22;27586;51.124;4.182;2022-12-20T14:16:37;11.20;99.90
41904;DHT22;27586;51.124;4.182;2022-12-20T14:19:13;11.10;99.90
41904;DHT22;27586;51.124;4.182;2022-12-20T14:21:43;11.10;99.90
41904;DHT22;27586;51.124;4.182;2022-12-20T14:24:20;11.00;99.90
41904;DHT22;27586;51.124;4.182;2022-12-20T14:26:47;11.10;99.90
41904;DHT22;27586;51.124;4.182;2022-12-20T14:29:26;11.10;99.90
41904;DHT22;27586;51.124;4.182;2022-12-20T14:31:52;11.00;99.90
41904;DHT22;27586;51.124;4.182;2022-12-20T14:34:23;11.00;99.90
41904;DHT22;27586;51.124;4.182;2022-12-20T14:36:50;11.00;99.90
41904;DHT22;27586;51.124;4.182;2022-12-20T14:39:32;11.00;99.90
41904;DHT22;27586;51.124;4.182;2022-12-20T14:42:04;11.00;99.90
41904;DHT22;27586;51.124;4.182;2022-12-20T14:44:37;11.10;99.90
41904;DHT22;27586;51.124;4.182;2022-12-20T14:49:38;11.10;99.90
41904;DHT22;27586;51.124;4.182;2022-12-20T14:54:32;11.00;99.90
41904;DHT22;27586;51.124;4.182;2022-12-20T14:57:00;11.00;99.90
41904;DHT22;27586;51.124;4.182;2022-12-20T14:59:28;11.00;99.90
41904;DHT22;27586;51.124;4.182;2022-12-20T15:01:54;11.00;99.90
41904;DHT22;27586;51.124;4.182;2022-12-20T15:04:31;10.90;99.90
41904;DHT22;27586;51.124;4.182;2022-12-20T15:07:01;10.90;99.90
41904;DHT22;27586;51.124;4.182;2022-12-20T15:09:28;11.00;99.90
41904;DHT22;27586;51.124;4.182;2022-12-20T15:11:55;11.00;99.90
41904;DHT22;27586;51.124;4.182;2022-12-20T15:14:34;11.00;99.90
41904;DHT22;27586;51.124;4.182;2022-12-20T15:17:03;11.00;99.90
41904;DHT22;27586;51.124;4.182;2022-12-20T15:19:29;11.00;99.90
41904;DHT22;27586;51.124;4.182;2022-12-20T15:21:56;11.00;99.90
41904;DHT22;27586;51.124;4.182;2022-12-20T15:24:26;11.10;99.90
41904;DHT22;27586;51.124;4.182;2022-12-20T15:26:53;11.10;99.90
41904;DHT22;27586;51.124;4.182;2022-12-20T15:29:21;11.10;99.90
41904;DHT22;27586;51.124;4.182;2022-12-20T15:31:47;11.10;99.90
41904;DHT22;27586;51.124;4.182;2022-12-20T15:34:27;11.00;99.90
41904;DHT22;27586;51.124;4.182;2022-12-20T15:36:55;11.10;99.90
41904;DHT22;27586;51.124;4.182;2022-12-20T15:39:25;11.10;99.90
41904;DHT22;27586;51.124;4.182;2022-12-20T15:41:51;11.10;99.90
41904;DHT22;27586;51.124;4.182;2022-12-20T15:44:25;11.20;99.90
41904;DHT22;27586;51.124;4.182;2022-12-20T15:46:51;11.10;99.90
41904;DHT22;27586;51.124;4.182;2022-12-20T15:49:19;11.10;99.90
41904;DHT22;27586;51.124;4.182;2022-12-20T15:51:47;11.10;99.90
41904;DHT22;27586;51.124;4.182;2022-12-20T15:54:27;11.10;99.90
41904;DHT22;27586;51.124;4.182;2022-12-20T15:56:58;11.10;99.90
41904;DHT22;27586;51.124;4.182;2022-12-20T15:59:24;11.10;99.90
41904;DHT22;27586;51.124;4.182;2022-12-20T16:01:53;11.10;99.90
41904;DHT22;27586;51.124;4.182;2022-12-20T16:04:20;11.00;99.90
41904;DHT22;27586;51.124;4.182;2022-12-20T16:06:47;11.10;99.90
41904;DHT22;27586;51.124;4.182;2022-12-20T16:09:14;11.10;99.90
41904;DHT22;27586;51.124;4.182;2022-12-20T16:11:40;11.10;99.90
41904;DHT22;27586;51.124;4.182;2022-12-20T16:14:16;11.10;99.90
41904;DHT22;27586;51.124;4.182;2022-12-20T16:16:42;11.10;99.90
41904;DHT22;27586;51.124;4.182;2022-12-20T16:19:09;11.10;99.90
41904;DHT22;27586;51.124;4.182;2022-12-20T16:21:42;11.10;99.90
41904;DHT22;27586;51.124;4.182;2022-12-20T16:24:12;11.00;99.90
41904;DHT22;27586;51.124;4.182;2022-12-20T16:26:38;11.00;99.90
41904;DHT22;27586;51.124;4.182;2022-12-20T16:29:03;11.00;99.90
41904;DHT22;27586;51.124;4.182;2022-12-20T16:31:32;11.00;99.90
41904;DHT22;27586;51.124;4.182;2022-12-20T16:34:04;11.10;99.90
41904;DHT22;27586;51.124;4.182;2022-12-20T16:36:30;11.10;99.90
41904;DHT22;27586;51.124;4.182;2022-12-20T16:38:56;11.10;99.90
41904;DHT22;27586;51.124;4.182;2022-12-20T16:41:24;11.10;99.90
41904;DHT22;27586;51.124;4.182;2022-12-20T16:43:53;11.00;99.90
41904;DHT22;27586;51.124;4.182;2022-12-20T16:46:20;11.10;99.90
41904;DHT22;27586;51.124;4.182;2022-12-20T16:48:47;11.10;99.90
41904;DHT22;27586;51.124;4.182;2022-12-20T16:53:43;11.00;99.90
41904;DHT22;27586;51.124;4.182;2022-12-20T16:56:15;11.00;99.90
41904;DHT22;27586;51.124;4.182;2022-12-20T16:58:41;11.10;99.90
41904;DHT22;27586;51.124;4.182;2022-12-20T17:01:13;11.10;99.90
41904;DHT22;27586;51.124;4.182;2022-12-20T17:03:39;11.10;99.90
41904;DHT22;27586;51.124;4.182;2022-12-20T17:06:05;11.10;99.90
41904;DHT22;27586;51.124;4.182;2022-12-20T17:08:31;11.10;99.90
41904;DHT22;27586;51.124;4.182;2022-12-20T17:10:57;11.20;99.90
41904;DHT22;27586;51.124;4.182;2022-12-20T17:13:23;11.10;99.90
41904;DHT22;27586;51.124;4.182;2022-12-20T17:15:49;11.10;99.90
41904;DHT22;27586;51.124;4.182;2022-12-20T17:18:14;11.10;99.90
41904;DHT22;27586;51.124;4.182;2022-12-20T17:20:40;11.00;99.90
41904;DHT22;27586;51.124;4.182;2022-12-20T17:23:08;11.00;99.90
41904;DHT22;27586;51.124;4.182;2022-12-20T17:25:35;11.00;99.90
41904;DHT22;27586;51.124;4.182;2022-12-20T17:28:04;11.00;99.90
41904;DHT22;27586;51.124;4.182;2022-12-20T17:30:30;11.00;99.90
41904;DHT22;27586;51.124;4.182;2022-12-20T17:32:56;11.00;99.90
41904;DHT22;27586;51.124;4.182;2022-12-20T17:35:30;11.10;99.90